Time;durP1;ratioP1;P1;durP2;ratioP2;P2;SDS_P1;SDS_P2;PMS_P1;PMS_P2;Temp;Humidity;BMP_temperature;BMP_pressure;BME280_temperature;BME280_humidity;BME280_pressure;Samples;Min_cycle;Max_cycle;Signal;HPM_P1;HPM_P2
2021/01/08 00:02:22;;;;;;;20.92;13.70;;;;;;;;;;5093717;28;20131;-72
2021/01/08 00:04:47;;;;;;;22.90;15.10;;;;;;;;;;5093793;28;20066;-72
2021/01/08 00:07:13;;;;;;;22.45;14.20;;;;;;;;;;5094777;28;20052;-72
2021/01/08 00:09:39;;;;;;;19.52;13.32;;;;;;;;;;5094768;28;20033;-72
2021/01/08 00:12:06;;;;;;;21.10;13.75;;;;;;;;;;5094653;28;20036;-72
2021/01/08 00:14:33;;;;;;;20.80;12.88;;;;;;;;;;5094835;28;20032;-72
2021/01/08 00:16:59;;;;;;;20.73;13.73;;;;;;;;;;5094733;28;20036;-72
2021/01/08 00:19:24;;;;;;;22.23;13.85;;;;;;;;;;5094739;28;20042;-72
2021/01/08 00:21:50;;;;;;;21.38;14.00;;;;;;;;;;5094146;28;20375;-72
2021/01/08 00:24:16;;;;;;;22.88;14.30;;;;;;;;;;5094477;28;20032;-72
2021/01/08 00:26:42;;;;;;;21.85;14.00;;;;;;;;;;5094403;28;20039;-72
2021/01/08 00:29:12;;;;;;;22.83;14.60;;;;;;;;;;5094486;28;20035;-72
2021/01/08 00:31:46;;;;;;;22.20;13.63;;;;;;;;;;5093344;28;20043;-72
2021/01/08 00:34:18;;;;;;;19.90;13.05;;;;;;;;;;5094433;28;20086;-72
2021/01/08 00:36:50;;;;;;;19.00;12.98;;;;;;;;;;5093866;28;20067;-72
2021/01/08 00:39:16;;;;;;;19.50;13.05;;;;;;;;;;5094157;28;20561;-72
2021/01/08 00:41:41;;;;;;;19.27;11.88;;;;;;;;;;5094378;28;20044;-72
2021/01/08 00:44:07;;;;;;;19.70;13.23;;;;;;;;;;5092698;28;20044;-72
2021/01/08 00:46:34;;;;;;;19.65;13.05;;;;;;;;;;5094082;28;20047;-72
2021/01/08 00:49:00;;;;;;;19.27;12.00;;;;;;;;;;5093993;28;20035;-72
2021/01/08 00:51:26;;;;;;;21.50;14.13;;;;;;;;;;5093558;28;20043;-72
2021/01/08 00:53:52;;;;;;;18.83;12.85;;;;;;;;;;5076012;28;20024;-72
2021/01/08 00:56:21;;;;;;;21.85;14.38;;;;;;;;;;5092679;28;20035;-72
2021/01/08 00:58:49;;;;;;;20.08;12.80;;;;;;;;;;5092377;28;20036;-72
2021/01/08 01:01:16;;;;;;;18.00;13.48;;;;;;;;;;5092670;28;20057;-72
2021/01/08 01:03:41;;;;;;;29.08;17.42;;;;;;;;;;5093930;28;20046;-72
2021/01/08 01:06:06;;;;;;;29.02;17.80;;;;;;;;;;5093451;28;20123;-72
2021/01/08 01:08:32;;;;;;;27.02;17.98;;;;;;;;;;5093765;28;20044;-72
2021/01/08 01:10:58;;;;;;;26.25;16.60;;;;;;;;;;5093877;28;20035;-72
2021/01/08 01:13:23;;;;;;;25.10;15.68;;;;;;;;;;5093601;28;20051;-73
2021/01/08 01:15:48;;;;;;;25.27;16.00;;;;;;;;;;5093867;28;20443;-72
2021/01/08 01:18:14;;;;;;;26.95;16.95;;;;;;;;;;5093394;28;20027;-72
2021/01/08 01:20:40;;;;;;;28.00;18.15;;;;;;;;;;5093375;28;20065;-72
2021/01/08 01:23:05;;;;;;;25.92;17.05;;;;;;;;;;5093100;28;20040;-72
2021/01/08 01:25:30;;;;;;;24.58;15.65;;;;;;;;;;5093763;28;20044;-72
2021/01/08 01:27:56;;;;;;;25.90;16.60;;;;;;;;;;5091959;28;20040;-72
2021/01/08 01:30:22;;;;;;;27.90;16.55;;;;;;;;;;5093721;28;20134;-72
2021/01/08 01:32:47;;;;;;;26.00;16.30;;;;;;;;;;5093474;28;20032;-72
2021/01/08 01:35:12;;;;;;;27.58;16.63;;;;;;;;;;5093529;28;20032;-72
2021/01/08 01:37:38;;;;;;;24.98;14.93;;;;;;;;;;5093020;28;20113;-72
2021/01/08 01:40:04;;;;;;;26.25;15.80;;;;;;;;;;5093538;28;20036;-72
2021/01/08 01:42:29;;;;;;;25.70;16.17;;;;;;;;;;5091979;28;20527;-72
2021/01/08 01:44:55;;;;;;;29.95;18.27;;;;;;;;;;5092928;28;20044;-72
2021/01/08 01:47:21;;;;;;;28.75;17.77;;;;;;;;;;5093411;28;20086;-72
2021/01/08 01:49:47;;;;;;;26.30;16.42;;;;;;;;;;5092049;28;20031;-72
2021/01/08 01:52:13;;;;;;;23.15;15.25;;;;;;;;;;5092834;28;20039;-72
2021/01/08 01:54:38;;;;;;;23.65;16.17;;;;;;;;;;5093162;28;20036;-72
2021/01/08 01:57:04;;;;;;;25.60;16.58;;;;;;;;;;5091749;28;20044;-72
2021/01/08 01:59:29;;;;;;;25.20;16.13;;;;;;;;;;5093197;28;20039;-72
2021/01/08 02:01:56;;;;;;;25.20;16.17;;;;;;;;;;5093063;28;20044;-72
2021/01/08 02:04:22;;;;;;;25.95;14.68;;;;;;;;;;5092979;28;20455;-72
2021/01/08 02:06:50;;;;;;;24.27;14.95;;;;;;;;;;5092655;28;20088;-72
2021/01/08 02:09:15;;;;;;;21.77;14.25;;;;;;;;;;5093187;28;20407;-72
2021/01/08 02:11:48;;;;;;;22.15;13.73;;;;;;;;;;5093097;28;20028;-72
2021/01/08 02:14:20;;;;;;;21.45;14.40;;;;;;;;;;5092962;28;20036;-72
2021/01/08 02:16:49;;;;;;;20.50;14.15;;;;;;;;;;5092758;28;20043;-72
2021/01/08 02:19:24;;;;;;;22.80;15.05;;;;;;;;;;5093058;28;20042;-73
2021/01/08 02:21:54;;;;;;;22.63;15.52;;;;;;;;;;5092756;28;20492;-72
2021/01/08 02:24:30;;;;;;;27.23;16.83;;;;;;;;;;5092990;28;20371;-72
2021/01/08 02:26:55;;;;;;;25.70;16.17;;;;;;;;;;5092901;28;20401;-72
2021/01/08 02:29:21;;;;;;;23.20;14.75;;;;;;;;;;5092897;28;20036;-72
2021/01/08 02:31:47;;;;;;;24.30;15.25;;;;;;;;;;5092656;28;20040;-72
2021/01/08 02:34:12;;;;;;;27.00;16.10;;;;;;;;;;5093037;28;20035;-72
2021/01/08 02:36:41;;;;;;;24.45;15.13;;;;;;;;;;5092383;28;20067;-72
2021/01/08 02:39:08;;;;;;;23.73;14.63;;;;;;;;;;5092626;28;20036;-72
2021/01/08 02:41:35;;;;;;;20.88;14.40;;;;;;;;;;5092423;28;20044;-72
2021/01/08 02:44:02;;;;;;;23.85;14.85;;;;;;;;;;5092614;28;20082;-72
2021/01/08 02:46:28;;;;;;;19.38;12.68;;;;;;;;;;5093101;28;20066;-72
2021/01/08 02:48:54;;;;;;;24.63;14.07;;;;;;;;;;5092681;28;20036;-72
2021/01/08 02:51:19;;;;;;;21.40;14.23;;;;;;;;;;5092413;28;20036;-72
2021/01/08 02:53:45;;;;;;;20.58;13.82;;;;;;;;;;5093589;28;20044;-72
2021/01/08 02:56:19;;;;;;;18.25;13.05;;;;;;;;;;5096647;28;20038;-72
2021/01/08 02:58:46;;;;;;;20.40;13.68;;;;;;;;;;5096050;28;20040;-72
2021/01/08 03:01:13;;;;;;;18.92;12.68;;;;;;;;;;5096389;28;20032;-72
2021/01/08 03:03:39;;;;;;;22.20;13.82;;;;;;;;;;5096237;28;20627;-72
2021/01/08 03:06:05;;;;;;;20.73;13.25;;;;;;;;;;5096250;28;20036;-73
2021/01/08 03:08:31;;;;;;;22.05;13.40;;;;;;;;;;5095903;28;20070;-72
2021/01/08 03:11:06;;;;;;;19.55;13.20;;;;;;;;;;5096005;28;20035;-72
2021/01/08 03:13:33;;;;;;;19.87;12.67;;;;;;;;;;5094969;28;20032;-72
2021/01/08 03:15:59;;;;;;;19.95;13.27;;;;;;;;;;5095200;28;20496;-72
2021/01/08 03:18:24;;;;;;;20.67;13.57;;;;;;;;;;5094643;28;20075;-72
2021/01/08 03:20:50;;;;;;;20.17;13.30;;;;;;;;;;5094573;28;20032;-72
2021/01/08 03:23:15;;;;;;;17.83;11.65;;;;;;;;;;5094887;28;20088;-72
2021/01/08 03:25:40;;;;;;;15.50;10.90;;;;;;;;;;5094956;28;20119;-72
2021/01/08 03:28:06;;;;;;;16.13;11.48;;;;;;;;;;5094002;28;20466;-72
2021/01/08 03:30:31;;;;;;;17.13;12.27;;;;;;;;;;5095679;28;20036;-72
2021/01/08 03:32:56;;;;;;;16.73;11.80;;;;;;;;;;5095444;28;20042;-72
2021/01/08 03:35:22;;;;;;;19.23;12.32;;;;;;;;;;5095730;28;20035;-72
2021/01/08 03:37:47;;;;;;;18.05;12.10;;;;;;;;;;5095417;28;20044;-72
2021/01/08 03:40:13;;;;;;;19.45;13.23;;;;;;;;;;5095590;28;20027;-72
2021/01/08 03:42:38;;;;;;;18.45;11.95;;;;;;;;;;5095266;28;20039;-72
2021/01/08 03:45:04;;;;;;;22.35;13.30;;;;;;;;;;5095065;28;20044;-72
2021/01/08 03:47:30;;;;;;;21.38;14.27;;;;;;;;;;5094935;28;20043;-72
2021/01/08 03:49:55;;;;;;;20.52;13.05;;;;;;;;;;5095521;28;20036;-72
2021/01/08 03:52:21;;;;;;;19.52;12.77;;;;;;;;;;5095003;28;20040;-72
2021/01/08 03:54:46;;;;;;;16.75;11.75;;;;;;;;;;5095164;28;20032;-72
2021/01/08 03:57:11;;;;;;;19.92;12.20;;;;;;;;;;5095406;28;20036;-72
2021/01/08 03:59:37;;;;;;;17.17;11.60;;;;;;;;;;5093826;28;20477;-72
2021/01/08 04:02:03;;;;;;;18.20;12.45;;;;;;;;;;5093878;28;20080;-72
2021/01/08 04:04:28;;;;;;;15.23;10.75;;;;;;;;;;5094991;28;20075;-72
2021/01/08 04:06:53;;;;;;;13.88;10.70;;;;;;;;;;5094908;28;20058;-72
2021/01/08 04:09:19;;;;;;;15.52;10.57;;;;;;;;;;5095043;28;20068;-72
2021/01/08 04:11:46;;;;;;;15.60;11.10;;;;;;;;;;5095067;28;20075;-72
2021/01/08 04:14:11;;;;;;;18.35;12.57;;;;;;;;;;5094797;28;20492;-72
2021/01/08 04:16:39;;;;;;;16.98;11.50;;;;;;;;;;5094629;28;20032;-72
2021/01/08 04:19:05;;;;;;;15.98;11.52;;;;;;;;;;5094953;28;20036;-72
2021/01/08 04:21:31;;;;;;;16.25;11.13;;;;;;;;;;5094351;28;20032;-72
2021/01/08 04:23:56;;;;;;;18.15;11.90;;;;;;;;;;5094760;28;20058;-72
2021/01/08 04:26:22;;;;;;;15.05;10.73;;;;;;;;;;5094707;28;20046;-72
2021/01/08 04:28:47;;;;;;;15.32;11.18;;;;;;;;;;5094479;28;20040;-72
2021/01/08 04:31:13;;;;;;;17.45;11.43;;;;;;;;;;5094419;28;20039;-72
2021/01/08 04:33:40;;;;;;;15.10;10.30;;;;;;;;;;5094335;28;20173;-72
2021/01/08 04:36:07;;;;;;;15.23;10.68;;;;;;;;;;5093114;28;20135;-73
2021/01/08 04:38:32;;;;;;;14.82;10.95;;;;;;;;;;5093171;28;20032;-72
2021/01/08 04:40:57;;;;;;;15.07;10.88;;;;;;;;;;5094566;28;20652;-72
2021/01/08 04:43:23;;;;;;;16.08;11.30;;;;;;;;;;5093836;28;20127;-72
2021/01/08 04:45:48;;;;;;;14.93;11.30;;;;;;;;;;5092752;28;20036;-72
2021/01/08 04:48:15;;;;;;;14.50;10.85;;;;;;;;;;5093881;28;20051;-72
2021/01/08 04:50:41;;;;;;;15.95;11.43;;;;;;;;;;5093067;28;20546;-73
2021/01/08 04:53:09;;;;;;;16.58;12.13;;;;;;;;;;5093823;28;20047;-72
2021/01/08 04:55:34;;;;;;;14.07;10.10;;;;;;;;;;5094140;28;20480;-72
2021/01/08 04:58:01;;;;;;;17.63;12.82;;;;;;;;;;5094118;28;20032;-73
2021/01/08 05:00:27;;;;;;;16.30;11.93;;;;;;;;;;5093720;28;20036;-72
2021/01/08 05:02:52;;;;;;;15.63;12.02;;;;;;;;;;5094126;28;20123;-73
2021/01/08 05:05:19;;;;;;;15.23;10.90;;;;;;;;;;5093657;28;20046;-73
2021/01/08 05:07:44;;;;;;;17.08;12.32;;;;;;;;;;5093717;28;20040;-72
2021/01/08 05:10:10;;;;;;;14.15;11.20;;;;;;;;;;5093641;28;20067;-72
2021/01/08 05:12:43;;;;;;;15.35;11.98;;;;;;;;;;5093817;28;20044;-72
2021/01/08 05:15:11;;;;;;;19.55;11.88;;;;;;;;;;5093698;28;20035;-72
2021/01/08 05:17:39;;;;;;;17.38;12.48;;;;;;;;;;5093042;28;20067;-72
2021/01/08 05:20:05;;;;;;;16.30;11.95;;;;;;;;;;5093766;28;20393;-72
2021/01/08 05:22:31;;;;;;;17.23;12.68;;;;;;;;;;5093362;28;20108;-72
2021/01/08 05:25:10;;;;;;;15.77;11.68;;;;;;;;;;5093639;28;20115;-72
2021/01/08 05:27:36;;;;;;;15.30;12.20;;;;;;;;;;5093361;28;20401;-71
2021/01/08 05:30:24;;;;;;;16.95;11.93;;;;;;;;;;5093603;28;20382;-73
2021/01/08 05:32:58;;;;;;;15.55;11.05;;;;;;;;;;5093270;28;20040;-73
2021/01/08 05:35:24;;;;;;;15.57;11.27;;;;;;;;;;5093551;28;20068;-73
2021/01/08 05:37:53;;;;;;;16.73;12.45;;;;;;;;;;5093144;28;20046;-72
2021/01/08 05:40:25;;;;;;;16.25;11.57;;;;;;;;;;5093579;28;20032;-73
2021/01/08 05:43:01;;;;;;;14.93;11.23;;;;;;;;;;5093041;28;20032;-72
2021/01/08 05:45:28;;;;;;;16.98;11.80;;;;;;;;;;5052989;28;20128;-72
2021/01/08 05:47:58;;;;;;;17.15;12.10;;;;;;;;;;5052853;28;20108;-73
2021/01/08 05:50:25;;;;;;;16.02;11.60;;;;;;;;;;5053155;28;20037;-72
2021/01/08 05:52:56;;;;;;;19.42;14.75;;;;;;;;;;5052852;28;20061;-73
2021/01/08 05:55:22;;;;;;;17.80;13.63;;;;;;;;;;5051999;28;20033;-73
2021/01/08 05:57:50;;;;;;;18.67;13.63;;;;;;;;;;5053205;28;20040;-73
2021/01/08 06:00:16;;;;;;;17.17;12.77;;;;;;;;;;5051866;28;20052;-73
2021/01/08 06:02:42;;;;;;;17.10;12.38;;;;;;;;;;5052645;28;20037;-73
2021/01/08 06:05:07;;;;;;;16.30;12.13;;;;;;;;;;5052479;28;20175;-73
2021/01/08 06:07:38;;;;;;;17.05;12.48;;;;;;;;;;5052658;28;20044;-72
2021/01/08 06:10:05;;;;;;;17.88;12.60;;;;;;;;;;5053082;28;20544;-72
2021/01/08 06:12:37;;;;;;;17.52;13.27;;;;;;;;;;5051431;28;20029;-72
2021/01/08 06:15:06;;;;;;;16.60;12.02;;;;;;;;;;5052890;28;20064;-73
2021/01/08 06:17:32;;;;;;;18.25;13.30;;;;;;;;;;5052722;28;20522;-73
2021/01/08 06:20:02;;;;;;;15.48;12.07;;;;;;;;;;5052783;28;20037;-73
2021/01/08 06:22:35;;;;;;;13.57;10.52;;;;;;;;;;5052602;28;20047;-72
2021/01/08 06:25:00;;;;;;;14.10;10.82;;;;;;;;;;5052728;28;20072;-72
2021/01/08 06:27:31;;;;;;;12.70;9.43;;;;;;;;;;5052795;28;20122;-72
2021/01/08 06:30:02;;;;;;;13.85;10.35;;;;;;;;;;5055398;28;20041;-72
2021/01/08 06:32:31;;;;;;;13.60;9.88;;;;;;;;;;5056562;28;20401;-72
2021/01/08 06:35:02;;;;;;;19.80;13.50;;;;;;;;;;5056626;28;20039;-72
2021/01/08 06:37:42;;;;;;;18.55;13.00;;;;;;;;;;5056321;28;20132;-72
2021/01/08 06:40:12;;;;;;;16.08;10.52;;;;;;;;;;5056530;28;20047;-73
2021/01/08 06:42:45;;;;;;;15.57;11.07;;;;;;;;;;5056306;28;20047;-72
2021/01/08 06:45:13;;;;;;;13.82;10.52;;;;;;;;;;5094137;28;20135;-72
2021/01/08 06:47:43;;;;;;;15.70;10.35;;;;;;;;;;5096138;28;20046;-72
2021/01/08 06:50:15;;;;;;;12.52;9.35;;;;;;;;;;5096544;28;20047;-72
2021/01/08 06:52:43;;;;;;;13.73;9.27;;;;;;;;;;5096270;28;20028;-72
2021/01/08 06:55:14;;;;;;;12.77;9.40;;;;;;;;;;5096313;28;20032;-71
2021/01/08 06:57:48;;;;;;;14.25;10.55;;;;;;;;;;5096198;28;20642;-73
2021/01/08 07:00:17;;;;;;;11.90;8.95;;;;;;;;;;5096273;28;20040;-73
2021/01/08 07:02:44;;;;;;;12.55;9.20;;;;;;;;;;5096374;28;20035;-72
2021/01/08 07:05:15;;;;;;;13.73;9.57;;;;;;;;;;5096095;28;20388;-73
2021/01/08 07:07:41;;;;;;;13.05;9.65;;;;;;;;;;5095894;28;20100;-73
2021/01/08 07:10:06;;;;;;;12.18;9.35;;;;;;;;;;5096395;28;20461;-72
2021/01/08 07:12:33;;;;;;;12.43;9.25;;;;;;;;;;5094747;28;20081;-72
2021/01/08 07:14:58;;;;;;;10.95;8.35;;;;;;;;;;5095919;28;20476;-72
2021/01/08 07:17:32;;;;;;;13.25;9.25;;;;;;;;;;5095935;28;20123;-73
2021/01/08 07:19:59;;;;;;;11.77;9.02;;;;;;;;;;5094648;28;20093;-73
2021/01/08 07:22:31;;;;;;;12.95;9.80;;;;;;;;;;5095688;28;20473;-73
2021/01/08 07:24:57;;;;;;;11.73;8.77;;;;;;;;;;5095546;28;20028;-72
2021/01/08 07:27:24;;;;;;;11.25;8.77;;;;;;;;;;5095620;28;20473;-71
2021/01/08 07:30:04;;;;;;;12.93;9.35;;;;;;;;;;5094479;28;20524;-72
2021/01/08 07:32:40;;;;;;;13.30;9.43;;;;;;;;;;5095512;28;20043;-72
2021/01/08 07:35:16;;;;;;;13.10;9.75;;;;;;;;;;5095835;28;20036;-72
2021/01/08 07:37:58;;;;;;;13.05;9.00;;;;;;;;;;5095291;28;20101;-72
2021/01/08 07:40:25;;;;;;;12.30;8.95;;;;;;;;;;5095308;28;20032;-72
2021/01/08 07:42:55;;;;;;;10.80;8.45;;;;;;;;;;5094324;28;20032;-71
2021/01/08 07:45:22;;;;;;;12.02;9.27;;;;;;;;;;5095247;28;20032;-72
2021/01/08 07:47:47;;;;;;;13.90;8.85;;;;;;;;;;5095430;28;20046;-72
2021/01/08 07:50:15;;;;;;;11.75;8.65;;;;;;;;;;5095155;28;20050;-72
2021/01/08 07:52:42;;;;;;;11.95;8.80;;;;;;;;;;5093711;28;20032;-71
2021/01/08 07:55:10;;;;;;;12.23;9.00;;;;;;;;;;5095224;28;20114;-73
2021/01/08 07:58:05;;;;;;;11.05;8.65;;;;;;;;;;5093304;28;20032;-73
2021/01/08 08:00:31;;;;;;;11.45;8.23;;;;;;;;;;5077293;28;20051;-73
2021/01/08 08:02:58;;;;;;;12.55;9.57;;;;;;;;;;5095048;28;20510;-73
2021/01/08 08:05:25;;;;;;;12.93;9.35;;;;;;;;;;5095026;28;20040;-73
2021/01/08 08:07:57;;;;;;;12.40;9.07;;;;;;;;;;5093990;28;20082;-73
2021/01/08 08:10:24;;;;;;;11.88;9.18;;;;;;;;;;5095128;28;20104;-73
2021/01/08 08:12:51;;;;;;;12.68;9.65;;;;;;;;;;5094898;28;20028;-73
2021/01/08 08:15:16;;;;;;;10.80;8.57;;;;;;;;;;5093776;28;20035;-73
2021/01/08 08:17:45;;;;;;;11.45;8.93;;;;;;;;;;5094538;28;20028;-73
2021/01/08 08:20:19;;;;;;;12.10;9.13;;;;;;;;;;5094863;28;20032;-73
2021/01/08 08:22:44;;;;;;;12.55;9.02;;;;;;;;;;5094452;28;20035;-73
2021/01/08 08:25:29;;;;;;;11.55;8.90;;;;;;;;;;5094854;28;20458;-73
2021/01/08 08:27:57;;;;;;;11.90;8.90;;;;;;;;;;5094709;28;20036;-72
2021/01/08 08:30:23;;;;;;;13.00;9.27;;;;;;;;;;5094835;28;20032;-73
2021/01/08 08:32:49;;;;;;;11.98;9.38;;;;;;;;;;5094084;28;20040;-73
2021/01/08 08:35:16;;;;;;;12.20;9.13;;;;;;;;;;5094444;28;20055;-73
2021/01/08 08:37:51;;;;;;;11.95;8.93;;;;;;;;;;5094334;28;20089;-73
2021/01/08 08:40:19;;;;;;;13.48;10.10;;;;;;;;;;5094525;28;20040;-73
2021/01/08 08:42:48;;;;;;;14.13;9.00;;;;;;;;;;5093163;28;20077;-74
2021/01/08 08:45:22;;;;;;;11.73;7.65;;;;;;;;;;5092887;28;20052;-74
2021/01/08 08:47:50;;;;;;;11.07;8.32;;;;;;;;;;5094096;28;20036;-74
2021/01/08 08:50:16;;;;;;;11.50;8.57;;;;;;;;;;5092884;28;20036;-74
2021/01/08 08:52:43;;;;;;;11.02;7.70;;;;;;;;;;5093428;28;20545;-73
2021/01/08 08:55:23;;;;;;;10.68;8.20;;;;;;;;;;5094353;28;20580;-74
2021/01/08 08:57:49;;;;;;;10.68;7.97;;;;;;;;;;5092888;28;20039;-73
2021/01/08 09:00:18;;;;;;;13.25;8.80;;;;;;;;;;5094073;28;20036;-73
2021/01/08 09:02:44;;;;;;;13.40;9.18;;;;;;;;;;5092904;28;20036;-73
2021/01/08 09:05:09;;;;;;;11.85;8.93;;;;;;;;;;5093942;28;20051;-72
2021/01/08 09:07:43;;;;;;;10.85;8.27;;;;;;;;;;5093698;28;20150;-73
2021/01/08 09:10:14;;;;;;;10.93;8.13;;;;;;;;;;5092250;28;20036;-73
2021/01/08 09:12:43;;;;;;;12.52;8.70;;;;;;;;;;5093906;28;20389;-73
2021/01/08 09:15:40;;;;;;;11.48;7.97;;;;;;;;;;5093486;28;20031;-74
2021/01/08 09:18:11;;;;;;;8.90;6.95;;;;;;;;;;5087541;28;20559;-73
2021/01/08 09:20:48;;;;;;;10.35;7.15;;;;;;;;;;5093705;28;20050;-73
2021/01/08 09:23:13;;;;;;;10.15;7.20;;;;;;;;;;5093631;28;20044;-73
2021/01/08 09:25:39;;;;;;;8.60;7.00;;;;;;;;;;5093714;28;20127;-73
2021/01/08 09:28:04;;;;;;;9.95;6.80;;;;;;;;;;5093686;28;20036;-73
2021/01/08 09:30:30;;;;;;;9.63;6.72;;;;;;;;;;5093770;28;20016;-73
2021/01/08 09:32:55;;;;;;;9.23;7.68;;;;;;;;;;5093811;28;20039;-73
2021/01/08 09:35:20;;;;;;;9.63;7.10;;;;;;;;;;5093653;28;20411;-73
2021/01/08 09:37:52;;;;;;;10.55;8.13;;;;;;;;;;5093345;28;20474;-73
2021/01/08 09:40:20;;;;;;;9.77;7.15;;;;;;;;;;5093502;28;20061;-73
2021/01/08 09:42:46;;;;;;;9.30;7.32;;;;;;;;;;5093123;28;20130;-73
2021/01/08 09:45:18;;;;;;;9.93;8.05;;;;;;;;;;5093249;28;20047;-73
2021/01/08 09:47:45;;;;;;;9.93;7.70;;;;;;;;;;5093427;28;20028;-73
2021/01/08 09:50:20;;;;;;;8.30;6.60;;;;;;;;;;5093339;28;20062;-73
2021/01/08 09:52:48;;;;;;;9.95;7.20;;;;;;;;;;5093274;28;20550;-73
2021/01/08 09:55:28;;;;;;;8.68;6.80;;;;;;;;;;5093518;28;20104;-73
2021/01/08 09:57:56;;;;;;;7.85;6.28;;;;;;;;;;5093522;28;20115;-73
2021/01/08 10:00:29;;;;;;;8.15;6.47;;;;;;;;;;5092997;28;20127;-73
2021/01/08 10:02:55;;;;;;;8.07;6.40;;;;;;;;;;5094483;28;20059;-73
2021/01/08 10:05:20;;;;;;;10.32;7.43;;;;;;;;;;5097571;28;20081;-73
2021/01/08 10:07:47;;;;;;;8.07;6.38;;;;;;;;;;5097330;28;20085;-73
2021/01/08 10:10:14;;;;;;;8.23;6.78;;;;;;;;;;5096145;28;20039;-73
2021/01/08 10:12:45;;;;;;;13.85;7.13;;;;;;;;;;5097279;28;20094;-73
2021/01/08 10:15:12;;;;;;;8.95;6.72;;;;;;;;;;5097160;28;20126;-73
2021/01/08 10:17:51;;;;;;;8.35;5.78;;;;;;;;;;5097077;28;20024;-73
2021/01/08 10:20:19;;;;;;;8.07;6.15;;;;;;;;;;5097066;28;20119;-73
2021/01/08 10:22:48;;;;;;;8.13;6.07;;;;;;;;;;5096793;28;20071;-73
2021/01/08 10:25:24;;;;;;;7.80;6.28;;;;;;;;;;5095746;28;20427;-73
2021/01/08 10:27:49;;;;;;;6.95;5.50;;;;;;;;;;5096977;28;20048;-73
2021/01/08 10:30:15;;;;;;;8.80;6.28;;;;;;;;;;5096691;28;20028;-73
2021/01/08 10:32:48;;;;;;;17.20;12.15;;;;;;;;;;5096951;28;20405;-73
2021/01/08 10:35:14;;;;;;;42.47;30.58;;;;;;;;;;5096834;28;20035;-73
2021/01/08 10:37:39;;;;;;;47.80;32.50;;;;;;;;;;5095447;28;20035;-73
2021/01/08 10:40:05;;;;;;;31.50;22.92;;;;;;;;;;5096701;28;20131;-73
2021/01/08 10:42:31;;;;;;;19.38;14.68;;;;;;;;;;5096768;28;20035;-73
2021/01/08 10:44:56;;;;;;;13.57;10.25;;;;;;;;;;5096612;28;20048;-73
2021/01/08 10:47:21;;;;;;;8.07;6.25;;;;;;;;;;5096743;28;20051;-72
2021/01/08 10:49:48;;;;;;;8.80;6.55;;;;;;;;;;5095382;28;20047;-72
2021/01/08 10:52:13;;;;;;;9.43;6.68;;;;;;;;;;5096353;28;20055;-73
2021/01/08 10:54:38;;;;;;;9.15;6.78;;;;;;;;;;5096339;28;20482;-73
2021/01/08 10:57:04;;;;;;;9.55;6.55;;;;;;;;;;5096315;28;20043;-73
2021/01/08 10:59:29;;;;;;;8.43;5.90;;;;;;;;;;5096323;28;20044;-72
2021/01/08 11:01:55;;;;;;;8.65;6.80;;;;;;;;;;5096439;28;20047;-73
2021/01/08 11:04:21;;;;;;;7.50;6.13;;;;;;;;;;5096155;28;20077;-73
2021/01/08 11:06:46;;;;;;;9.07;6.90;;;;;;;;;;5096348;28;20031;-73
2021/01/08 11:09:12;;;;;;;9.90;7.53;;;;;;;;;;5094553;28;20519;-73
2021/01/08 11:11:38;;;;;;;9.60;8.18;;;;;;;;;;5096068;28;20409;-72
2021/01/08 11:14:04;;;;;;;8.60;7.03;;;;;;;;;;5094032;28;20062;-73
2021/01/08 11:16:31;;;;;;;9.77;6.68;;;;;;;;;;5095778;28;20028;-73
2021/01/08 11:18:56;;;;;;;7.65;5.97;;;;;;;;;;5096021;28;20393;-73
2021/01/08 11:21:22;;;;;;;8.15;6.30;;;;;;;;;;5095836;28;20043;-73
2021/01/08 11:23:49;;;;;;;7.60;6.03;;;;;;;;;;5095519;28;20047;-73
2021/01/08 11:26:24;;;;;;;7.00;5.90;;;;;;;;;;5096026;28;20434;-73
2021/01/08 11:28:50;;;;;;;7.15;5.82;;;;;;;;;;5094625;28;20119;-73
2021/01/08 11:31:15;;;;;;;6.68;5.10;;;;;;;;;;5095731;28;20115;-73
2021/01/08 11:33:40;;;;;;;5.47;4.50;;;;;;;;;;5095803;28;20404;-73
2021/01/08 11:36:06;;;;;;;6.45;5.10;;;;;;;;;;5095549;28;20086;-72
2021/01/08 11:38:31;;;;;;;7.18;5.07;;;;;;;;;;5094936;28;20544;-72
2021/01/08 11:40:57;;;;;;;7.40;5.40;;;;;;;;;;5095562;28;20036;-73
2021/01/08 11:43:22;;;;;;;6.18;4.63;;;;;;;;;;5094129;28;20106;-73
2021/01/08 11:45:47;;;;;;;5.45;4.78;;;;;;;;;;5095507;28;20088;-72
2021/01/08 11:48:13;;;;;;;8.27;5.63;;;;;;;;;;5095260;28;20036;-73
2021/01/08 11:50:38;;;;;;;6.95;5.38;;;;;;;;;;5095451;28;20096;-72
2021/01/08 11:53:03;;;;;;;8.75;6.53;;;;;;;;;;5094940;28;20043;-72
2021/01/08 11:55:29;;;;;;;7.65;6.22;;;;;;;;;;5094193;28;20452;-73
2021/01/08 11:57:55;;;;;;;7.50;6.13;;;;;;;;;;5095096;28;20409;-73
2021/01/08 12:00:20;;;;;;;7.93;6.28;;;;;;;;;;5095099;28;20484;-72
2021/01/08 12:02:46;;;;;;;8.05;6.63;;;;;;;;;;5094959;28;20493;-71
2021/01/08 12:05:11;;;;;;;7.00;5.60;;;;;;;;;;5094872;28;20028;-74
2021/01/08 12:07:37;;;;;;;7.93;6.10;;;;;;;;;;5093517;28;20541;-73
2021/01/08 12:10:02;;;;;;;7.07;5.85;;;;;;;;;;5093859;28;20028;-74
2021/01/08 12:12:28;;;;;;;7.57;6.00;;;;;;;;;;5094899;28;20117;-74
2021/01/08 12:14:53;;;;;;;6.63;5.18;;;;;;;;;;5094725;28;20028;-74
2021/01/08 12:17:18;;;;;;;7.30;5.47;;;;;;;;;;5093700;28;20069;-73
2021/01/08 12:19:44;;;;;;;7.82;5.47;;;;;;;;;;5094914;28;20542;-74
2021/01/08 12:22:10;;;;;;;5.72;4.60;;;;;;;;;;5094835;28;20036;-73
2021/01/08 12:24:37;;;;;;;6.72;5.43;;;;;;;;;;5094653;28;20079;-73
2021/01/08 12:27:02;;;;;;;6.88;5.22;;;;;;;;;;5093694;28;20051;-73
2021/01/08 12:29:29;;;;;;;7.82;5.55;;;;;;;;;;5094645;28;20044;-72
2021/01/08 12:32:03;;;;;;;7.22;5.47;;;;;;;;;;5094503;28;20040;-72
2021/01/08 12:34:28;;;;;;;5.72;4.45;;;;;;;;;;5094554;28;20059;-72
2021/01/08 12:36:54;;;;;;;7.03;4.85;;;;;;;;;;5094580;28;20075;-71
2021/01/08 12:39:19;;;;;;;6.32;4.47;;;;;;;;;;5093063;28;20115;-72
2021/01/08 12:41:44;;;;;;;6.10;4.32;;;;;;;;;;5094141;28;20501;-72
2021/01/08 12:44:10;;;;;;;5.60;4.57;;;;;;;;;;5094038;28;20077;-72
2021/01/08 12:46:36;;;;;;;5.05;4.13;;;;;;;;;;5092580;28;20043;-71
2021/01/08 12:49:05;;;;;;;5.15;3.90;;;;;;;;;;5094120;28;20469;-72
2021/01/08 12:51:31;;;;;;;7.32;4.35;;;;;;;;;;5094349;28;20165;-72
2021/01/08 12:53:57;;;;;;;4.97;3.92;;;;;;;;;;5093959;28;20048;-72
2021/01/08 12:56:34;;;;;;;4.95;4.10;;;;;;;;;;5094309;28;20028;-73
2021/01/08 12:59:00;;;;;;;5.80;4.57;;;;;;;;;;5094308;28;20031;-73
2021/01/08 13:01:25;;;;;;;6.55;4.75;;;;;;;;;;5093863;28;20050;-73
2021/01/08 13:03:51;;;;;;;6.82;5.15;;;;;;;;;;5093835;28;20490;-73
2021/01/08 13:06:27;;;;;;;4.78;3.97;;;;;;;;;;5094046;28;20048;-73
2021/01/08 13:08:53;;;;;;;4.90;3.88;;;;;;;;;;5092618;28;20389;-73
2021/01/08 13:11:19;;;;;;;4.47;3.53;;;;;;;;;;5093983;28;20440;-73
2021/01/08 13:13:45;;;;;;;4.22;3.35;;;;;;;;;;5079734;28;20374;-73
2021/01/08 13:16:10;;;;;;;5.00;3.33;;;;;;;;;;5073436;28;20044;-73
2021/01/08 13:18:36;;;;;;;3.75;2.92;;;;;;;;;;5072973;28;20047;-73
2021/01/08 13:21:01;;;;;;;4.95;3.75;;;;;;;;;;5073465;28;20082;-73
2021/01/08 13:23:27;;;;;;;4.45;3.55;;;;;;;;;;5071998;28;20482;-73
2021/01/08 13:25:52;;;;;;;4.13;3.05;;;;;;;;;;5073414;28;20043;-73
2021/01/08 13:28:17;;;;;;;3.83;3.17;;;;;;;;;;5073577;28;20040;-73
2021/01/08 13:30:43;;;;;;;3.75;3.30;;;;;;;;;;5073290;28;20059;-73
2021/01/08 13:33:09;;;;;;;5.13;3.65;;;;;;;;;;5073320;28;20073;-73
2021/01/08 13:35:35;;;;;;;5.18;3.42;;;;;;;;;;5073376;28;20029;-73
2021/01/08 13:38:00;;;;;;;4.28;3.50;;;;;;;;;;5072760;28;20043;-73
2021/01/08 13:40:27;;;;;;;4.68;3.70;;;;;;;;;;5073546;28;20040;-73
2021/01/08 13:42:52;;;;;;;4.82;3.70;;;;;;;;;;5080120;28;20044;-73
2021/01/08 13:45:18;;;;;;;4.97;3.83;;;;;;;;;;5093252;28;20097;-73
2021/01/08 13:47:43;;;;;;;5.35;4.03;;;;;;;;;;5093554;28;20445;-73
2021/01/08 13:50:09;;;;;;;5.30;4.18;;;;;;;;;;5093312;28;20039;-73
2021/01/08 13:52:36;;;;;;;5.57;4.32;;;;;;;;;;5093522;28;20089;-73
2021/01/08 13:55:01;;;;;;;5.05;3.75;;;;;;;;;;5093294;28;20040;-73
2021/01/08 13:57:27;;;;;;;5.70;4.53;;;;;;;;;;5092050;28;20097;-73
2021/01/08 13:59:52;;;;;;;4.80;4.30;;;;;;;;;;5091885;28;20032;-73
2021/01/08 14:02:17;;;;;;;6.40;5.00;;;;;;;;;;5093221;28;20032;-73
2021/01/08 14:04:43;;;;;;;5.70;4.40;;;;;;;;;;5093290;28;20397;-73
2021/01/08 14:07:08;;;;;;;8.40;6.63;;;;;;;;;;5093224;28;20040;-73
2021/01/08 14:09:33;;;;;;;7.50;5.88;;;;;;;;;;5093070;28;20028;-73
2021/01/08 14:12:00;;;;;;;6.75;5.70;;;;;;;;;;5093403;28;20067;-73
2021/01/08 14:14:25;;;;;;;9.10;6.43;;;;;;;;;;5112988;28;20035;-73
2021/01/08 14:16:51;;;;;;;6.60;5.30;;;;;;;;;;5112381;28;20044;-73
2021/01/08 14:19:16;;;;;;;6.95;5.45;;;;;;;;;;5113525;28;20098;-73
2021/01/08 14:21:42;;;;;;;8.15;5.72;;;;;;;;;;5112445;28;20408;-72
2021/01/08 14:24:08;;;;;;;9.40;7.25;;;;;;;;;;5111655;28;20036;-72
2021/01/08 14:26:34;;;;;;;9.23;7.35;;;;;;;;;;5113645;28;20093;-73
2021/01/08 14:29:00;;;;;;;8.15;6.25;;;;;;;;;;5113313;28;20035;-73
2021/01/08 14:31:31;;;;;;;7.70;5.75;;;;;;;;;;5113343;28;20084;-73